This is the latest recevied weather packets stored in our database for station/object ON5MM-5. If no packets are shown the sender has not sent any weather packets the latest 10 day(s).
| Time | Temp. | Humidity | Pressure | Rain* | Wind** | Luminosity | Snow |
|---|---|---|---|---|---|---|---|
| 1777720503 | 21.67° C | 48% | 1020 hPa | 0 mm | 2.24 m/s, ° | - | - |
| 1777720203 | 22.22° C | 45% | 1020.1 hPa | 0 mm | 1.79 m/s, ° | - | - |
| 1777719902 | 22.78° C | 43% | 1020.1 hPa | 0 mm | 2.24 m/s, ° | - | - |
| 1777719602 | 22.78° C | 44% | 1020.1 hPa | 0 mm | 2.68 m/s, ° | - | - |
| 1777719302 | 22.78° C | 44% | 1020.2 hPa | 0 mm | 2.68 m/s, ° | - | - |
| 1777719002 | 22.78° C | 44% | 1020.3 hPa | 0 mm | 2.24 m/s, ° | - | - |
| 1777718702 | 22.78° C | 43% | 1020.4 hPa | 0 mm | 2.24 m/s, ° | - | - |
| 1777718402 | 22.78° C | 44% | 1020.4 hPa | 0 mm | 2.68 m/s, ° | - | - |
| 1777718102 | 22.78° C | 44% | 1020.5 hPa | 0 mm | 2.24 m/s, ° | - | - |
| 1777717802 | 22.22° C | 44% | 1020.5 hPa | 0 mm | 2.68 m/s, ° | - | - |
| 1777717502 | 22.78° C | 45% | 1020.6 hPa | 0 mm | 3.13 m/s, ° | - | - |
| 1777717203 | 22.78° C | 45% | 1020.6 hPa | 0 mm | 2.24 m/s, ° | - | - |
| 1777716902 | 22.22° C | 47% | 1020.7 hPa | 0 mm | 2.24 m/s, ° | - | - |
| 1777716602 | 21.67° C | 47% | 1020.8 hPa | 0 mm | 2.68 m/s, ° | - | - |
| 1777716302 | 21.67° C | 46% | 1020.8 hPa | 0 mm | 2.24 m/s, ° | - | - |
| 1777716002 | 21.11° C | 48% | 1020.9 hPa | 0 mm | 3.58 m/s, ° | - | - |
| 1777715702 | 21.11° C | 48% | 1020.9 hPa | 0 mm | 3.13 m/s, ° | - | - |
| 1777715403 | 21.11° C | 47% | 1021 hPa | 0 mm | 2.68 m/s, ° | - | - |
| 1777714803 | 21.11° C | 48% | 1021 hPa | 0 mm | 1.79 m/s, ° | - | - |
| 1777714502 | 21.11° C | 48% | 1021.1 hPa | 0 mm | 1.79 m/s, ° | - | - |
| 1777714203 | 20.56° C | 48% | 1021.1 hPa | 0 mm | 3.13 m/s, ° | - | - |
| 1777713903 | 20° C | 50% | 1021.2 hPa | 0 mm | 2.68 m/s, ° | - | - |
| 1777713602 | 20° C | 49% | 1021.2 hPa | 0 mm | 3.13 m/s, ° | - | - |
| 1777713302 | 20° C | 49% | 1021.2 hPa | 0 mm | 3.13 m/s, ° | - | - |
| 1777713003 | 20.56° C | 49% | 1021.2 hPa | 0 mm | 3.58 m/s, ° | - | - |
* Rain latest hour (hover to see other rain measurements)
** Current wind speed in m/s (hover to see current wind gust speed)